createdAt,value
2023-01-21T00:00:00.607Z,36.6
2023-01-21T00:10:00.609Z,39.6
2023-01-21T00:20:00.617Z,40.1
2023-01-21T00:30:00.615Z,37.9
2023-01-21T00:40:00.616Z,37.7
2023-01-21T00:50:00.622Z,36.2
2023-01-21T01:00:00.639Z,35.5
2023-01-21T01:10:00.607Z,31.7
2023-01-21T01:20:00.653Z,30.1
2023-01-21T01:30:00.634Z,27.3
2023-01-21T01:40:00.614Z,27.2
2023-01-21T01:50:00.604Z,26.1
2023-01-21T02:00:00.601Z,23.6
2023-01-21T02:10:00.606Z,24.4
2023-01-21T02:20:00.592Z,21.2
2023-01-21T02:30:00.613Z,21.9
2023-01-21T02:40:00.650Z,23.4
2023-01-21T02:50:00.590Z,23.7
2023-01-21T03:00:00.634Z,23.7
2023-01-21T03:10:00.603Z,24.7
2023-01-21T03:20:00.602Z,24.7
2023-01-21T03:30:00.607Z,25.8
2023-01-21T03:40:00.618Z,26.6
2023-01-21T03:50:00.611Z,28.7
2023-01-21T04:00:00.626Z,30.1
2023-01-21T04:10:00.596Z,32.7
2023-01-21T04:20:00.617Z,36.8
2023-01-21T04:30:00.595Z,43.9
2023-01-21T04:40:00.603Z,39.0
2023-01-21T04:50:00.628Z,41.2
2023-01-21T05:00:00.625Z,36.6
2023-01-21T05:10:00.620Z,41.3
2023-01-21T05:20:00.599Z,43.0
2023-01-21T05:30:00.609Z,37.2
2023-01-21T05:40:00.603Z,38.0
2023-01-21T05:50:00.609Z,33.9
2023-01-21T06:00:00.593Z,31.9
2023-01-21T06:10:00.617Z,35.8
2023-01-21T06:20:00.598Z,32.1
2023-01-21T06:30:00.588Z,41.9
2023-01-21T06:40:00.654Z,80.0
2023-01-21T06:50:00.593Z,28.2
2023-01-21T07:00:00.595Z,83.4
2023-01-21T07:10:00.591Z,62.9
2023-01-21T07:40:00.510Z,46.6
2023-01-21T07:50:01.389Z,36.3
2023-01-21T08:00:00.532Z,34.3
2023-01-21T08:10:00.555Z,40.1
2023-01-21T08:20:00.562Z,60.2
2023-01-21T08:30:00.486Z,44.4
2023-01-21T08:40:00.487Z,110.5
2023-01-21T08:50:00.470Z,91.4
2023-01-21T09:00:00.472Z,94.5
2023-01-21T09:10:00.498Z,129.6
2023-01-21T09:20:00.615Z,57.9
2023-01-21T09:30:00.483Z,111.8
2023-01-21T09:50:00.561Z,102.7
2023-01-21T10:00:00.385Z,76.0
2023-01-21T10:10:00.392Z,49.4
2023-01-21T10:20:00.400Z,72.8
2023-01-21T10:30:00.416Z,45.4
2023-01-21T10:40:00.393Z,64.0
2023-01-21T10:50:00.391Z,91.3
2023-01-21T11:00:00.413Z,26.2
2023-01-21T11:10:00.477Z,25.6
2023-01-21T11:20:00.504Z,34.1
2023-01-21T11:30:00.430Z,36.4
2023-01-21T11:40:00.399Z,139.6
2023-01-21T11:50:00.410Z,127.7
2023-01-21T12:00:00.422Z,80.5
2023-01-21T12:10:00.455Z,62.3
2023-01-21T12:20:00.398Z,66.6
2023-01-21T12:30:00.833Z,42.7
2023-01-21T12:40:00.682Z,73.0
2023-01-21T12:50:00.712Z,34.5
2023-01-21T13:00:00.686Z,32.4
2023-01-21T13:10:00.685Z,45.4
2023-01-21T13:20:00.682Z,25.2
2023-01-21T13:30:00.703Z,52.6
2023-01-21T13:40:00.707Z,39.2
2023-01-21T13:50:00.712Z,60.9
2023-01-21T14:00:00.694Z,54.4
2023-01-21T14:10:00.683Z,49.6
2023-01-21T14:20:00.685Z,10.4
2023-01-21T14:30:00.672Z,15.0
2023-01-21T14:40:00.681Z,22.2
2023-01-21T14:50:00.704Z,41.1
2023-01-21T15:00:00.800Z,45.6
2023-01-21T15:10:00.684Z,46.2
2023-01-21T15:20:00.737Z,43.1
2023-01-21T15:30:00.794Z,49.6
2023-01-21T15:40:00.858Z,41.7
2023-01-21T15:50:00.707Z,39.4
2023-01-21T16:00:00.674Z,42.6
2023-01-21T16:10:00.575Z,40.1
2023-01-21T16:20:00.574Z,30.6
2023-01-21T16:30:00.556Z,45.0
2023-01-21T16:40:00.556Z,35.5
2023-01-21T16:50:00.571Z,44.4
2023-01-21T17:00:00.638Z,53.5
2023-01-21T17:10:00.600Z,37.3
2023-01-21T17:20:00.636Z,48.4
2023-01-21T17:30:00.564Z,63.8
2023-01-21T17:40:00.563Z,50.1
2023-01-21T17:50:00.568Z,58.1
2023-01-21T18:00:00.565Z,31.1
2023-01-21T18:10:00.605Z,34.5
2023-01-21T18:20:00.616Z,21.2
2023-01-21T18:30:00.563Z,19.7
2023-01-21T18:40:00.595Z,36.0
2023-01-21T18:50:00.570Z,26.3
2023-01-21T19:00:00.623Z,19.2
2023-01-21T19:10:00.631Z,28.5
2023-01-21T19:20:00.574Z,30.7
2023-01-21T19:30:00.684Z,29.4
2023-01-21T19:40:00.678Z,90.4
2023-01-21T19:50:00.559Z,132.0
2023-01-21T20:00:00.652Z,36.7
2023-01-21T20:10:00.598Z,28.4
2023-01-21T20:20:00.557Z,36.5
2023-01-21T20:30:15.705Z,26.9
2023-01-21T20:40:00.573Z,33.6
2023-01-21T20:50:00.548Z,22.9
2023-01-21T21:00:00.616Z,23.2
2023-01-21T21:10:00.572Z,31.8
2023-01-21T21:20:00.564Z,23.9
2023-01-21T21:30:00.577Z,26.5
2023-01-21T21:40:00.636Z,19.6
2023-01-21T21:50:00.556Z,26.6
2023-01-21T22:00:00.587Z,17.8
2023-01-21T22:10:00.572Z,18.3
2023-01-21T22:20:00.550Z,14.3
2023-01-21T22:30:01.564Z,13.9
2023-01-21T22:40:00.614Z,13.4
2023-01-21T22:50:00.548Z,12.1
2023-01-21T23:00:02.341Z,13.4
2023-01-21T23:10:00.569Z,12.5
2023-01-21T23:20:00.560Z,11.6
2023-01-21T23:30:00.560Z,13.8
2023-01-21T23:40:00.558Z,11.7
2023-01-21T23:50:00.555Z,9.3
